createdAt,value
2018-11-01T00:07:15.544Z,100565.67
2018-11-01T00:15:36.522Z,100562.87
2018-11-01T00:23:57.520Z,100568.94
2018-11-01T00:32:18.506Z,100578.00
2018-11-01T00:40:39.491Z,100584.07
2018-11-01T00:49:00.596Z,100571.97
2018-11-01T00:57:21.601Z,100570.19
2018-11-01T01:05:42.627Z,100568.78
2018-11-01T01:14:03.632Z,100566.81
2018-11-01T01:22:24.618Z,100562.94
2018-11-01T01:30:45.647Z,100578.22
2018-11-01T01:39:06.701Z,100586.93
2018-11-01T01:47:27.709Z,100583.88
2018-11-01T01:55:48.709Z,100578.64
2018-11-01T02:04:09.735Z,100578.48
2018-11-01T02:12:30.734Z,100565.41
2018-11-01T02:20:51.733Z,100546.45
2018-11-01T02:29:12.781Z,100539.73
2018-11-01T02:37:33.785Z,100536.28
2018-11-01T02:45:54.805Z,100534.34
2018-11-01T02:54:15.814Z,100508.56
2018-11-01T03:02:36.794Z,100492.97
2018-11-01T03:10:57.779Z,100514.98
2018-11-01T03:19:18.804Z,100504.87
2018-11-01T03:27:39.832Z,100523.40
2018-11-01T03:36:00.818Z,100511.45
2018-11-01T03:44:21.839Z,100508.52
2018-11-01T03:52:42.898Z,100501.52
2018-11-01T04:01:03.879Z,100497.56
2018-11-01T04:09:24.879Z,100499.66
2018-11-01T04:17:45.880Z,100475.31
2018-11-01T04:26:06.900Z,100473.05
2018-11-01T04:34:27.910Z,100464.52
2018-11-01T04:42:48.905Z,100456.14
2018-11-01T04:51:10.018Z,100475.91
2018-11-01T04:59:31.021Z,100478.14
2018-11-01T05:07:52.022Z,100461.78
2018-11-01T05:16:13.024Z,100458.58
2018-11-01T05:24:34.031Z,100451.08
2018-11-01T05:32:55.052Z,100443.42
2018-11-01T05:41:16.033Z,100449.44
2018-11-01T05:49:37.047Z,100461.84
2018-11-01T05:57:58.069Z,100476.31
2018-11-01T06:06:19.195Z,100492.98
2018-11-01T06:14:40.173Z,100483.75
2018-11-01T06:23:01.195Z,100483.88
2018-11-01T06:31:22.173Z,100479.34
2018-11-01T06:39:43.191Z,100471.95
2018-11-01T06:48:04.201Z,100485.86
2018-11-01T06:56:25.287Z,100485.45
2018-11-01T07:04:46.262Z,100488.88
2018-11-01T07:13:07.261Z,100486.97
2018-11-01T07:21:28.309Z,100485.02
2018-11-01T07:29:49.323Z,100470.45
2018-11-01T07:38:10.522Z,100465.86
2018-11-01T07:46:31.932Z,100450.47
2018-11-01T07:54:53.492Z,100449.86
2018-11-01T08:03:14.842Z,100450.66
2018-11-01T08:11:36.249Z,100449.88
2018-11-01T08:19:57.628Z,100445.51
2018-11-01T08:28:18.736Z,100454.23
2018-11-01T08:36:39.865Z,100442.78
2018-11-01T08:45:01.018Z,100424.70
2018-11-01T08:53:22.173Z,100417.05
2018-11-01T09:01:43.304Z,100401.00
2018-11-01T09:10:04.418Z,100408.81
2018-11-01T09:18:25.418Z,100412.02
2018-11-01T09:26:46.439Z,100411.68
2018-11-01T09:35:07.596Z,100407.11
2018-11-01T09:43:28.592Z,100403.79
2018-11-01T09:51:49.597Z,100410.63
2018-11-01T10:00:10.710Z,100406.44
2018-11-01T10:08:31.689Z,100405.66
2018-11-01T10:16:52.941Z,100411.47
2018-11-01T10:25:13.850Z,100411.52
2018-11-01T10:33:34.839Z,100397.84
2018-11-01T10:41:55.849Z,100386.91
2018-11-01T10:50:16.859Z,100371.11
2018-11-01T10:58:37.861Z,100375.17
2018-11-01T11:06:58.879Z,100381.50
2018-11-01T11:15:19.896Z,100396.20
2018-11-01T11:23:40.920Z,100372.48
2018-11-01T11:32:01.930Z,100343.62
2018-11-01T11:40:23.023Z,100337.75
2018-11-01T11:48:44.010Z,100325.55
2018-11-01T11:57:05.049Z,100306.44
2018-11-01T12:05:26.143Z,100307.09
2018-11-01T12:13:47.083Z,100320.83
2018-11-01T12:22:08.105Z,100332.78
2018-11-01T12:30:29.105Z,100317.27
2018-11-01T12:38:50.113Z,100322.45
2018-11-01T12:47:11.118Z,100308.73
2018-11-01T12:55:32.122Z,100313.92
2018-11-01T13:03:53.144Z,100321.45
2018-11-01T13:12:14.141Z,100317.17
2018-11-01T13:20:35.122Z,100323.84
2018-11-01T13:28:56.101Z,100325.20
2018-11-01T13:37:17.087Z,100344.96
2018-11-01T13:45:38.089Z,100350.72
2018-11-01T13:53:59.219Z,100355.36
2018-11-01T14:02:20.244Z,100362.43
2018-11-01T14:10:41.270Z,100366.39
2018-11-01T14:19:02.287Z,100377.09
2018-11-01T14:27:23.308Z,100373.70
2018-11-01T14:35:44.328Z,100380.88
2018-11-01T14:44:05.345Z,100380.19
2018-11-01T14:52:27.121Z,100384.16
2018-11-01T15:00:47.484Z,100390.45
2018-11-01T15:09:08.482Z,100390.41
2018-11-01T15:17:29.490Z,100386.50
2018-11-01T15:25:50.521Z,100404.56
2018-11-01T15:34:11.724Z,100414.24
2018-11-01T15:42:32.596Z,100411.05
2018-11-01T15:50:53.648Z,100406.03
2018-11-01T15:59:14.679Z,100413.98
2018-11-01T16:07:35.738Z,100408.23
2018-11-01T16:15:56.869Z,100413.13
2018-11-01T16:24:17.929Z,100416.53
2018-11-01T16:32:38.977Z,100413.34
2018-11-01T16:40:59.982Z,100409.05
2018-11-01T16:49:20.989Z,100410.26
2018-11-01T16:57:42.026Z,100408.63
2018-11-01T17:06:03.189Z,100393.88
2018-11-01T17:14:24.954Z,100396.58
2018-11-01T17:22:46.227Z,100387.88
2018-11-01T17:31:07.384Z,100388.30
2018-11-01T17:39:28.564Z,100401.98
2018-11-01T17:47:49.803Z,100411.16
2018-11-01T17:56:10.959Z,100418.16
2018-11-01T18:04:32.026Z,100403.50
2018-11-01T18:12:53.383Z,100408.80
2018-11-01T18:21:14.583Z,100408.36
2018-11-01T18:29:35.629Z,100412.63
2018-11-01T18:37:56.719Z,100413.59
2018-11-01T18:46:17.823Z,100423.12
2018-11-01T18:54:38.973Z,100437.33
2018-11-01T19:02:59.934Z,100438.88
2018-11-01T19:11:20.954Z,100433.89
2018-11-01T19:19:41.996Z,100449.20
2018-11-01T19:28:03.163Z,100442.48
2018-11-01T19:36:24.073Z,100449.03
2018-11-01T19:44:45.105Z,100460.50
2018-11-01T19:53:06.117Z,100470.34
2018-11-01T20:01:27.224Z,100469.80
2018-11-01T20:09:48.267Z,100463.41
2018-11-01T20:18:09.306Z,100459.91
2018-11-01T20:26:30.351Z,100470.09
2018-11-01T20:34:51.357Z,100475.44
2018-11-01T20:43:12.365Z,100473.84
2018-11-01T20:51:33.396Z,100476.13
2018-11-01T20:59:54.405Z,100472.70
2018-11-01T21:08:15.425Z,100485.59
2018-11-01T21:16:36.418Z,100498.37
2018-11-01T21:24:57.563Z,100487.16
2018-11-01T21:33:18.565Z,100495.30
2018-11-01T21:41:39.757Z,100482.20
2018-11-01T21:50:00.836Z,100482.12
2018-11-01T21:58:21.860Z,100500.08
2018-11-01T22:06:42.894Z,100500.49
2018-11-01T22:15:03.969Z,100497.48
2018-11-01T22:23:25.000Z,100519.87
2018-11-01T22:31:46.028Z,100517.69
2018-11-01T22:40:07.064Z,100521.86
2018-11-01T22:48:28.078Z,100532.67
2018-11-01T22:56:49.085Z,100533.45
2018-11-01T23:05:10.129Z,100536.84
2018-11-01T23:13:31.141Z,100544.23
2018-11-01T23:21:52.125Z,100556.16
2018-11-01T23:30:13.121Z,100554.38
2018-11-01T23:38:34.161Z,100551.51
2018-11-01T23:46:55.169Z,100565.55
2018-11-01T23:55:16.205Z,100571.71
